Time;durP1;ratioP1;P1;durP2;ratioP2;P2;SDS_P1;SDS_P2;PMS_P1;PMS_P2;Temp;Humidity;BMP_temperature;BMP_pressure;BME280_temperature;BME280_humidity;BME280_pressure;Samples;Min_cycle;Max_cycle;Signal;HPM_P1;HPM_P2
2023/02/20 00:01:22;;;;;;;11.10;6.97;;;5.80;99.90;;;;;;6184125;23;20024;-75
2023/02/20 00:03:48;;;;;;;9.80;7.20;;;5.90;99.90;;;;;;6185911;23;20012;-75
2023/02/20 00:06:14;;;;;;;10.57;7.53;;;6.00;99.90;;;;;;6184010;23;20025;-75
2023/02/20 00:08:40;;;;;;;10.38;7.65;;;5.90;99.90;;;;;;6184489;23;20020;-75
2023/02/20 00:11:05;;;;;;;9.82;7.72;;;5.90;99.90;;;;;;6185105;23;20079;-75
2023/02/20 00:13:31;;;;;;;10.55;8.30;;;6.00;99.90;;;;;;6184124;23;20020;-75
2023/02/20 00:15:57;;;;;;;12.88;8.07;;;5.90;99.90;;;;;;6185789;23;20091;-75
2023/02/20 00:18:22;;;;;;;11.73;8.35;;;6.10;99.90;;;;;;6185934;23;20192;-75
2023/02/20 00:20:48;;;;;;;11.60;8.38;;;6.00;99.90;;;;;;6185794;23;20013;-75
2023/02/20 00:23:14;;;;;;;11.35;8.65;;;6.00;99.90;;;;;;6187629;23;20059;-75
2023/02/20 00:25:40;;;;;;;13.50;10.55;;;6.10;99.90;;;;;;6187850;23;20363;-75
2023/02/20 00:28:05;;;;;;;10.65;8.40;;;6.10;99.90;;;;;;6185780;23;20056;-75
2023/02/20 00:30:31;;;;;;;13.75;9.30;;;6.10;99.90;;;;;;6187258;23;20094;-75
2023/02/20 00:32:57;;;;;;;11.65;10.15;;;6.00;99.90;;;;;;6187608;23;20036;-75
2023/02/20 00:35:24;;;;;;;12.90;9.63;;;6.00;99.90;;;;;;6186065;23;20060;-75
2023/02/20 00:37:51;;;;;;;12.43;9.80;;;6.20;99.90;;;;;;6185750;23;20338;-75
2023/02/20 00:40:18;;;;;;;14.52;10.60;;;6.20;99.90;;;;;;6185678;23;20140;-75
2023/02/20 00:42:43;;;;;;;13.60;10.68;;;6.20;99.90;;;;;;6185614;23;20084;-75
2023/02/20 00:45:11;;;;;;;11.85;10.40;;;6.20;99.90;;;;;;6187562;23;20319;-75
2023/02/20 00:47:36;;;;;;;12.95;10.85;;;6.20;99.90;;;;;;6185512;23;20446;-75
2023/02/20 00:50:03;;;;;;;12.20;10.45;;;6.20;99.90;;;;;;6185514;23;20079;-75
2023/02/20 00:52:29;;;;;;;14.13;11.43;;;6.30;99.90;;;;;;6160717;23;20088;-75
2023/02/20 00:54:55;;;;;;;15.32;11.68;;;6.10;99.90;;;;;;6160639;23;20076;-75
2023/02/20 00:57:20;;;;;;;12.82;10.90;;;6.20;99.90;;;;;;6185429;23;20009;-75
2023/02/20 00:59:47;;;;;;;15.30;11.10;;;6.30;99.90;;;;;;6185962;23;20303;-75
2023/02/20 01:02:12;;;;;;;12.05;10.68;;;6.30;99.90;;;;;;6187244;23;20036;-75
2023/02/20 01:04:38;;;;;;;12.15;10.63;;;6.30;99.90;;;;;;6187315;23;20036;-75
2023/02/20 01:07:03;;;;;;;12.52;10.80;;;6.30;99.90;;;;;;6187288;23;20013;-75
2023/02/20 01:09:29;;;;;;;12.30;10.57;;;6.30;99.90;;;;;;6187372;23;20059;-75
2023/02/20 01:11:55;;;;;;;15.40;10.60;;;6.40;99.90;;;;;;6187452;23;20419;-75
2023/02/20 01:14:21;;;;;;;13.65;10.85;;;6.40;99.90;;;;;;6185278;23;20017;-75
2023/02/20 01:16:50;;;;;;;13.40;10.48;;;6.30;99.90;;;;;;6160618;23;20019;-75
2023/02/20 01:19:16;;;;;;;14.25;10.40;;;6.40;99.90;;;;;;6185311;23;20009;-75
2023/02/20 01:21:42;;;;;;;11.30;10.10;;;6.40;99.90;;;;;;6160561;23;20016;-75
2023/02/20 01:24:08;;;;;;;12.82;10.73;;;6.50;99.90;;;;;;6187099;23;20319;-75
2023/02/20 01:26:35;;;;;;;13.30;10.65;;;6.30;99.90;;;;;;6185139;23;20017;-75
2023/02/20 01:29:01;;;;;;;13.27;10.35;;;6.40;99.90;;;;;;6186741;23;20013;-75
2023/02/20 01:31:27;;;;;;;12.30;10.35;;;6.30;99.90;;;;;;6186552;23;20013;-75
2023/02/20 01:33:53;;;;;;;11.65;10.07;;;6.30;99.90;;;;;;6187093;23;20009;-75
2023/02/20 01:36:19;;;;;;;13.35;10.57;;;6.40;99.90;;;;;;6185112;23;20023;-75
2023/02/20 01:38:45;;;;;;;12.43;10.23;;;6.40;99.90;;;;;;6187085;23;20013;-75
2023/02/20 01:41:11;;;;;;;16.00;10.05;;;6.30;99.90;;;;;;6185368;23;20044;-75
2023/02/20 01:43:37;;;;;;;14.43;10.80;;;6.30;99.90;;;;;;6186894;23;20013;-75
2023/02/20 01:46:24;;;;;;;14.02;10.80;;;6.20;99.90;;;;;;6186727;23;20439;-75
2023/02/20 01:48:50;;;;;;;13.40;10.18;;;6.30;99.90;;;;;;6186540;23;20017;-75
2023/02/20 01:51:16;;;;;;;13.15;10.50;;;6.20;99.90;;;;;;6186927;23;20044;-75
2023/02/20 01:53:42;;;;;;;13.63;10.52;;;6.30;99.90;;;;;;6186821;23;20120;-75
2023/02/20 01:56:08;;;;;;;15.18;11.43;;;6.30;99.90;;;;;;6184981;23;20517;-75
2023/02/20 01:58:42;;;;;;;15.55;10.13;;;6.30;99.90;;;;;;6186213;23;20080;-75
2023/02/20 02:01:08;;;;;;;16.50;11.88;;;6.30;99.90;;;;;;6185621;23;20067;-75
2023/02/20 02:03:40;;;;;;;14.52;11.18;;;6.40;99.90;;;;;;6186768;23;20180;-75
2023/02/20 02:06:08;;;;;;;15.40;10.70;;;6.40;99.90;;;;;;6186285;23;20017;-75
2023/02/20 02:08:36;;;;;;;16.13;10.10;;;6.50;99.90;;;;;;6184676;23;20127;-75
2023/02/20 02:11:09;;;;;;;13.30;10.10;;;6.50;99.90;;;;;;6186710;23;20019;-75
2023/02/20 02:13:37;;;;;;;14.27;9.80;;;6.40;99.90;;;;;;6186659;23;20024;-75
2023/02/20 02:16:18;;;;;;;15.73;10.68;;;6.60;99.90;;;;;;6184543;23;20023;-75
2023/02/20 02:18:49;;;;;;;11.52;9.45;;;6.50;99.90;;;;;;6186641;23;20080;-75
2023/02/20 02:21:38;;;;;;;13.68;9.73;;;6.50;99.90;;;;;;6186634;23;20017;-75
2023/02/20 02:24:34;;;;;;;15.73;10.73;;;6.60;99.90;;;;;;6187109;23;20013;-75
2023/02/20 02:27:21;;;;;;;14.25;10.13;;;6.50;99.90;;;;;;6186363;23;20233;-75
2023/02/20 02:30:11;;;;;;;17.65;10.95;;;6.60;99.90;;;;;;6186288;23;20017;-75
2023/02/20 02:33:03;;;;;;;16.63;10.43;;;6.60;99.90;;;;;;6186179;23;20506;-75
2023/02/20 02:35:50;;;;;;;14.35;10.10;;;6.80;99.90;;;;;;6159848;23;20043;-75
2023/02/20 02:38:29;;;;;;;21.30;10.98;;;6.80;99.90;;;;;;6186589;23;20378;-75
2023/02/20 02:41:21;;;;;;;15.25;10.75;;;6.80;99.90;;;;;;6184744;23;20068;-76
2023/02/20 02:43:54;;;;;;;17.30;9.93;;;6.80;99.90;;;;;;6184528;23;20013;-75
2023/02/20 02:46:37;;;;;;;14.95;10.43;;;6.80;99.90;;;;;;6184944;23;20059;-75
2023/02/20 02:49:26;;;;;;;15.70;11.23;;;6.80;99.90;;;;;;6186522;23;20009;-75
2023/02/20 02:51:55;;;;;;;15.52;12.52;;;6.80;99.90;;;;;;6110731;23;20036;-76
2023/02/20 02:54:26;;;;;;;14.98;10.35;;;6.90;99.90;;;;;;6186104;23;20089;-75
2023/02/20 02:57:12;;;;;;;18.42;11.23;;;7.00;99.90;;;;;;6184792;23;20066;-75
2023/02/20 02:59:37;;;;;;;16.05;10.65;;;7.00;99.90;;;;;;6184657;23;20343;-75
2023/02/20 03:02:09;;;;;;;15.85;10.88;;;7.00;99.90;;;;;;6184477;23;20020;-75
2023/02/20 03:04:37;;;;;;;19.35;12.68;;;7.10;99.90;;;;;;6186429;23;20029;-75
2023/02/20 03:07:07;;;;;;;18.55;12.13;;;7.10;99.90;;;;;;6184369;23;20016;-75
2023/02/20 03:09:38;;;;;;;20.85;12.65;;;7.20;99.90;;;;;;6186249;23;20009;-75
2023/02/20 03:12:06;;;;;;;17.10;13.00;;;7.20;99.90;;;;;;6186416;23;20031;-75
2023/02/20 03:17:35;;;;;;;19.63;12.15;;;7.20;99.90;;;;;;6186301;23;20025;-75
2023/02/20 03:20:11;;;;;;;19.10;12.13;;;7.10;99.90;;;;;;6186246;23;20025;-75
2023/02/20 03:22:44;;;;;;;18.92;13.50;;;7.20;99.90;;;;;;6185747;23;20466;-75
2023/02/20 03:25:18;;;;;;;20.00;13.00;;;7.20;99.90;;;;;;6185875;23;20021;-75
2023/02/20 03:27:52;;;;;;;19.55;13.63;;;7.10;99.90;;;;;;6184307;23;20021;-75
2023/02/20 03:30:26;;;;;;;19.00;12.02;;;7.20;99.90;;;;;;6186169;23;20114;-75
2023/02/20 03:44:12;;;;;;;22.33;15.88;;;7.20;99.90;;;;;;6185709;23;20438;-75
2023/02/20 03:46:39;;;;;;;23.65;15.25;;;7.00;99.90;;;;;;6185661;23;20087;-75
2023/02/20 03:49:10;;;;;;;26.00;15.43;;;7.00;99.90;;;;;;6185458;23;20017;-75
2023/02/20 03:54:19;;;;;;;26.20;14.98;;;7.00;99.90;;;;;;6186010;23;20013;-75
2023/02/20 03:56:51;;;;;;;23.30;17.25;;;7.00;99.90;;;;;;6187783;23;20066;-75
2023/02/20 03:59:40;;;;;;;27.52;16.05;;;7.10;99.90;;;;;;6161175;23;20450;-75
2023/02/20 04:02:17;;;;;;;28.75;17.38;;;7.10;99.90;;;;;;6115001;23;20013;-75
2023/02/20 04:04:48;;;;;;;27.20;17.23;;;7.10;99.90;;;;;;6185968;23;20024;-75
2023/02/20 04:07:40;;;;;;;29.10;18.75;;;7.10;99.90;;;;;;6187933;23;20014;-75
2023/02/20 04:10:11;;;;;;;30.98;19.67;;;7.00;99.90;;;;;;6187808;23;20331;-75
2023/02/20 04:12:41;;;;;;;33.17;20.30;;;7.10;99.90;;;;;;6187978;23;20334;-75
2023/02/20 04:15:08;;;;;;;28.83;19.73;;;7.20;99.90;;;;;;6187640;23;20088;-75
2023/02/20 04:18:03;;;;;;;31.90;20.05;;;7.10;99.90;;;;;;6185798;23;20013;-75
2023/02/20 04:20:29;;;;;;;31.67;21.02;;;7.20;99.90;;;;;;6187716;23;20009;-75
2023/02/20 04:23:02;;;;;;;36.08;23.38;;;7.20;99.90;;;;;;6187620;23;20013;-75
2023/02/20 04:25:41;;;;;;;52.40;28.13;;;7.10;99.90;;;;;;6187771;23;20049;-75
2023/02/20 04:28:07;;;;;;;53.08;30.65;;;7.00;99.90;;;;;;6186236;23;20041;-75
2023/02/20 04:30:32;;;;;;;54.00;29.70;;;7.20;99.90;;;;;;6185516;23;20394;-75
2023/02/20 04:32:58;;;;;;;55.92;31.73;;;7.10;99.90;;;;;;6160847;23;20020;-75
2023/02/20 04:35:24;;;;;;;52.38;31.05;;;7.20;99.90;;;;;;6185569;23;20056;-75
2023/02/20 04:37:50;;;;;;;49.78;31.23;;;7.00;99.90;;;;;;6187580;23;20383;-75
2023/02/20 04:40:18;;;;;;;55.10;32.83;;;6.90;99.90;;;;;;6187514;23;20017;-75
2023/02/20 04:42:44;;;;;;;52.42;32.05;;;7.10;99.90;;;;;;6185664;23;20024;-75
2023/02/20 04:45:09;;;;;;;51.38;32.08;;;7.20;99.90;;;;;;6187475;23;20009;-75
2023/02/20 04:47:35;;;;;;;55.03;31.95;;;7.20;99.90;;;;;;6185519;23;20017;-75
2023/02/20 04:50:01;;;;;;;54.15;33.38;;;7.20;99.90;;;;;;6160630;23;20017;-75
2023/02/20 04:52:27;;;;;;;49.15;31.90;;;7.20;99.90;;;;;;6185344;23;20028;-75
2023/02/20 04:54:52;;;;;;;49.00;28.45;;;7.20;99.90;;;;;;6187149;23;20013;-75
2023/02/20 04:57:18;;;;;;;55.53;34.00;;;7.30;99.90;;;;;;6185404;23;20013;-75
2023/02/20 04:59:44;;;;;;;52.03;32.50;;;7.10;99.90;;;;;;6186801;23;20327;-75
2023/02/20 05:02:10;;;;;;;54.58;31.40;;;7.10;99.90;;;;;;6185314;23;20081;-75
2023/02/20 05:04:35;;;;;;;46.97;30.38;;;7.10;99.90;;;;;;6187284;23;20021;-75
2023/02/20 05:07:01;;;;;;;52.47;33.60;;;7.10;99.90;;;;;;6185376;23;20013;-75
2023/02/20 05:09:27;;;;;;;60.10;32.78;;;7.30;99.90;;;;;;6186902;23;20071;-74
2023/02/20 05:11:53;;;;;;;57.45;32.22;;;7.30;99.90;;;;;;6185670;23;20017;-75
2023/02/20 05:14:20;;;;;;;51.10;32.00;;;7.20;99.90;;;;;;6187143;23;20030;-75
2023/02/20 05:16:46;;;;;;;54.17;32.92;;;7.20;99.90;;;;;;6185307;23;20072;-75
2023/02/20 05:19:13;;;;;;;54.92;30.02;;;7.20;99.90;;;;;;6187224;23;20052;-75
2023/02/20 05:24:27;;;;;;;55.97;30.85;;;7.50;99.90;;;;;;6185331;23;20462;-75
2023/02/20 05:26:54;;;;;;;57.05;31.50;;;7.30;99.90;;;;;;6185626;23;20035;-75
2023/02/20 05:29:20;;;;;;;52.83;32.22;;;7.40;99.90;;;;;;6185139;23;20017;-75
2023/02/20 05:31:46;;;;;;;51.15;30.60;;;7.50;99.90;;;;;;6184904;23;20017;-74
2023/02/20 05:34:11;;;;;;;48.25;29.70;;;7.40;99.90;;;;;;6185176;23;20265;-75
2023/02/20 05:36:37;;;;;;;51.08;30.02;;;7.40;99.90;;;;;;6184957;23;20017;-75
2023/02/20 05:39:03;;;;;;;47.60;30.58;;;7.40;99.90;;;;;;6185116;23;20025;-74
2023/02/20 05:41:29;;;;;;;47.90;28.45;;;7.60;99.90;;;;;;6186803;23;20505;-74
2023/02/20 05:43:56;;;;;;;45.97;30.95;;;7.60;99.90;;;;;;6186862;23;20017;-77
2023/02/20 05:46:23;;;;;;;43.05;29.08;;;7.60;99.90;;;;;;6160144;23;20021;-71
2023/02/20 05:48:49;;;;;;;45.35;30.65;;;7.70;99.90;;;;;;6184969;23;20021;-76
2023/02/20 05:51:23;;;;;;;48.10;30.42;;;7.60;99.90;;;;;;6186856;23;20017;-76
2023/02/20 05:53:48;;;;;;;46.60;28.08;;;7.60;99.90;;;;;;6186813;23;20039;-76
2023/02/20 05:56:14;;;;;;;44.60;28.98;;;7.60;99.90;;;;;;6160156;23;20017;-76
2023/02/20 05:58:42;;;;;;;35.22;26.55;;;7.70;99.90;;;;;;6184969;23;20013;-76
2023/02/20 06:01:09;;;;;;;35.70;24.83;;;7.60;99.90;;;;;;6160196;23;20017;-75
2023/02/20 06:03:34;;;;;;;40.58;25.65;;;7.80;99.90;;;;;;6184930;23;20253;-75
2023/02/20 06:06:00;;;;;;;37.47;24.52;;;7.80;99.90;;;;;;6186822;23;20450;-75
2023/02/20 06:08:25;;;;;;;41.85;26.40;;;7.70;99.90;;;;;;6184931;23;20013;-75
2023/02/20 06:10:51;;;;;;;37.03;24.08;;;7.90;99.90;;;;;;6185016;23;20542;-75
2023/02/20 06:13:17;;;;;;;28.05;23.15;;;7.90;99.90;;;;;;6184724;23;20346;-75
2023/02/20 06:15:42;;;;;;;30.60;23.98;;;7.70;99.90;;;;;;6184739;23;20017;-69
2023/02/20 06:18:08;;;;;;;35.22;24.65;;;7.90;99.90;;;;;;6160010;23;20059;-73
2023/02/20 06:20:34;;;;;;;29.90;22.40;;;7.90;99.90;;;;;;6186778;23;20009;-73
2023/02/20 06:22:59;;;;;;;31.55;23.13;;;7.90;99.90;;;;;;6186724;23;20076;-74
2023/02/20 06:25:25;;;;;;;30.30;20.92;;;7.80;99.90;;;;;;6186254;23;20342;-73
2023/02/20 06:27:50;;;;;;;32.75;21.48;;;7.80;99.90;;;;;;6186780;23;20308;-73
2023/02/20 06:30:16;;;;;;;30.42;20.50;;;7.90;99.90;;;;;;6184654;23;20095;-73
2023/02/20 06:32:42;;;;;;;27.90;21.13;;;7.70;99.90;;;;;;6186583;23;20385;-73
2023/02/20 06:35:07;;;;;;;26.05;18.42;;;7.90;99.90;;;;;;6186605;23;20017;-74
2023/02/20 06:37:33;;;;;;;24.17;19.50;;;7.90;99.90;;;;;;6184700;23;20315;-74
2023/02/20 06:39:59;;;;;;;23.08;17.58;;;7.80;99.90;;;;;;6186201;23;20386;-73
2023/02/20 06:42:24;;;;;;;23.08;17.02;;;7.90;99.90;;;;;;6186721;23;20016;-75
2023/02/20 06:44:50;;;;;;;17.20;14.90;;;7.70;99.90;;;;;;6184487;23;20013;-75
2023/02/20 06:47:15;;;;;;;16.27;13.60;;;7.80;99.90;;;;;;6186353;23;20024;-75
2023/02/20 06:49:42;;;;;;;15.98;13.40;;;8.00;99.90;;;;;;6186370;23;20017;-73
2023/02/20 06:52:09;;;;;;;15.38;13.77;;;7.80;99.90;;;;;;6186319;23;20043;-74
2023/02/20 06:54:35;;;;;;;15.52;12.38;;;7.90;99.90;;;;;;6186128;23;20013;-72
2023/02/20 06:57:01;;;;;;;14.63;11.63;;;8.00;99.90;;;;;;6184872;23;20022;-73
2023/02/20 06:59:28;;;;;;;12.48;10.57;;;8.00;99.90;;;;;;6185847;23;20473;-73
2023/02/20 07:01:53;;;;;;;14.15;11.95;;;8.00;99.90;;;;;;6186268;23;20005;-73
2023/02/20 07:04:22;;;;;;;11.32;10.20;;;7.80;99.90;;;;;;6186221;23;20081;-74
2023/02/20 07:06:48;;;;;;;11.73;9.95;;;7.90;99.90;;;;;;6186296;23;20013;-73
2023/02/20 07:09:14;;;;;;;10.32;9.07;;;8.00;99.90;;;;;;6186859;23;20016;-74
2023/02/20 07:11:40;;;;;;;10.02;8.52;;;8.00;99.90;;;;;;6186093;23;20496;-74
2023/02/20 07:14:06;;;;;;;10.43;7.97;;;7.90;99.90;;;;;;6184606;23;20041;-75
2023/02/20 07:16:32;;;;;;;10.45;8.23;;;7.90;99.90;;;;;;6184213;23;20017;-74
2023/02/20 07:18:58;;;;;;;9.93;7.93;;;8.10;99.90;;;;;;6184375;23;20049;-73
2023/02/20 07:21:23;;;;;;;9.82;7.78;;;8.10;99.90;;;;;;6185746;23;20044;-73
2023/02/20 07:23:49;;;;;;;11.02;8.23;;;7.90;99.90;;;;;;6186645;23;20067;-73
2023/02/20 07:26:20;;;;;;;8.93;7.88;;;8.10;99.90;;;;;;6189546;23;20013;-73
2023/02/20 07:28:46;;;;;;;9.95;8.00;;;8.10;99.90;;;;;;6187957;23;20020;-74
2023/02/20 07:31:12;;;;;;;7.97;7.15;;;8.20;99.90;;;;;;6187612;23;20021;-74
2023/02/20 07:33:37;;;;;;;7.05;6.32;;;8.10;99.90;;;;;;6187516;23;20020;-73
2023/02/20 07:36:04;;;;;;;6.75;5.90;;;8.10;99.90;;;;;;6189331;23;20059;-73
2023/02/20 07:38:29;;;;;;;5.60;5.05;;;8.10;99.90;;;;;;6189014;23;20059;-73
2023/02/20 07:40:58;;;;;;;5.43;4.60;;;8.20;99.90;;;;;;6187620;23;20013;-73
2023/02/20 07:43:23;;;;;;;6.60;4.78;;;8.10;99.90;;;;;;6187484;23;20343;-73
2023/02/20 07:45:49;;;;;;;5.68;4.30;;;8.10;99.90;;;;;;6187530;23;20016;-73
2023/02/20 07:48:15;;;;;;;4.00;3.55;;;8.20;99.90;;;;;;6162659;23;20020;-73
2023/02/20 07:50:40;;;;;;;4.07;3.65;;;8.20;99.90;;;;;;6162639;23;20008;-73
2023/02/20 07:53:06;;;;;;;4.43;4.03;;;8.20;99.90;;;;;;6187425;23;20024;-73
2023/02/20 07:55:32;;;;;;;6.80;5.55;;;8.10;99.90;;;;;;6187378;23;20076;-75
2023/02/20 07:57:58;;;;;;;5.25;4.75;;;8.30;99.90;;;;;;6187594;23;20013;-74
2023/02/20 08:00:26;;;;;;;5.07;4.03;;;8.30;99.90;;;;;;6189259;23;20435;-74
2023/02/20 08:02:52;;;;;;;4.57;4.18;;;8.20;99.90;;;;;;6188943;23;20508;-74
2023/02/20 08:05:17;;;;;;;4.20;3.80;;;8.20;99.90;;;;;;6189284;23;20055;-74
2023/02/20 08:07:48;;;;;;;3.90;3.40;;;8.30;99.90;;;;;;6187521;23;20067;-74
2023/02/20 08:10:16;;;;;;;3.20;2.90;;;8.30;99.90;;;;;;6187429;23;20073;-74
2023/02/20 08:12:42;;;;;;;4.32;3.28;;;8.30;99.90;;;;;;6189047;23;20037;-71
2023/02/20 08:15:11;;;;;;;2.35;1.63;;;8.40;99.90;;;;;;6187295;23;20328;-72
2023/02/20 08:17:40;;;;;;;3.13;1.80;;;8.30;99.90;;;;;;6187346;23;20112;-73
2023/02/20 08:20:07;;;;;;;2.58;2.08;;;8.40;99.90;;;;;;6188768;23;20447;-73
2023/02/20 08:22:33;;;;;;;2.40;2.20;;;8.30;99.90;;;;;;6188727;23;20013;-73
2023/02/20 08:24:59;;;;;;;1.90;1.70;;;8.40;99.90;;;;;;6188834;23;20048;-73
2023/02/20 08:27:26;;;;;;;2.22;1.50;;;8.40;99.90;;;;;;6187412;23;20021;-73
2023/02/20 08:29:52;;;;;;;1.75;1.65;;;8.30;99.90;;;;;;6188795;23;20009;-73
2023/02/20 08:32:17;;;;;;;1.15;1.05;;;8.50;99.90;;;;;;6187288;23;20044;-73
2023/02/20 08:34:43;;;;;;;1.40;1.20;;;8.40;99.90;;;;;;6185798;23;20019;-73
2023/02/20 08:37:09;;;;;;;1.20;1.00;;;8.60;99.90;;;;;;6187490;23;20327;-74
2023/02/20 08:39:35;;;;;;;1.58;1.42;;;8.50;99.90;;;;;;6187545;23;20040;-73
2023/02/20 08:42:01;;;;;;;1.15;1.05;;;8.50;99.90;;;;;;6185918;23;20013;-73
2023/02/20 08:44:27;;;;;;;1.85;1.50;;;8.50;99.90;;;;;;6185654;23;20084;-73
2023/02/20 08:46:52;;;;;;;1.27;1.15;;;8.50;99.90;;;;;;6187494;23;20020;-73
2023/02/20 08:49:19;;;;;;;1.13;1.02;;;8.50;99.90;;;;;;6187172;23;20013;-73
2023/02/20 08:51:46;;;;;;;1.13;1.02;;;8.50;99.90;;;;;;6187098;23;20013;-73
2023/02/20 08:54:12;;;;;;;1.42;1.02;;;8.60;99.90;;;;;;6187455;23;20013;-73
2023/02/20 08:56:38;;;;;;;1.55;1.23;;;8.50;99.90;;;;;;6187376;23;20021;-73
2023/02/20 08:59:03;;;;;;;1.20;1.10;;;8.50;99.90;;;;;;6186980;23;20058;-73
2023/02/20 09:01:29;;;;;;;1.25;1.00;;;8.50;99.90;;;;;;6187518;23;20334;-73
2023/02/20 09:03:54;;;;;;;0.98;0.93;;;8.60;99.90;;;;;;6187273;23;20017;-73
2023/02/20 09:06:23;;;;;;;0.82;0.82;;;8.60;99.90;;;;;;6187018;23;20021;-74
2023/02/20 09:08:49;;;;;;;1.10;1.00;;;8.70;99.90;;;;;;6187283;23;20109;-74
2023/02/20 09:11:15;;;;;;;0.90;0.90;;;8.60;99.90;;;;;;6187406;23;20061;-73
2023/02/20 09:13:42;;;;;;;0.85;0.85;;;8.60;99.90;;;;;;6187168;23;20020;-73
2023/02/20 09:16:08;;;;;;;1.70;0.90;;;8.70;99.90;;;;;;6187083;23;20043;-72
2023/02/20 09:18:34;;;;;;;0.80;0.80;;;8.70;99.90;;;;;;6187121;23;20017;-72
2023/02/20 09:20:59;;;;;;;0.90;0.90;;;8.60;99.90;;;;;;6186756;23;20017;-72
2023/02/20 09:23:26;;;;;;;0.90;0.90;;;8.70;99.90;;;;;;6187260;23;20024;-72
2023/02/20 09:25:52;;;;;;;0.90;0.90;;;8.70;99.90;;;;;;6186699;23;20067;-72
2023/02/20 09:28:18;;;;;;;0.70;0.70;;;8.70;99.90;;;;;;6187260;23;20009;-72
2023/02/20 09:30:44;;;;;;;0.80;0.80;;;8.80;99.90;;;;;;6187215;23;20017;-72
2023/02/20 09:33:10;;;;;;;0.80;0.80;;;8.70;99.90;;;;;;6187085;23;20020;-72
2023/02/20 09:35:37;;;;;;;0.80;0.80;;;8.80;99.90;;;;;;6186987;23;20346;-72
2023/02/20 09:38:03;;;;;;;0.70;0.70;;;8.60;99.90;;;;;;6185158;23;20021;-72
2023/02/20 09:40:30;;;;;;;0.68;0.68;;;8.70;99.90;;;;;;6186986;23;20013;-72
2023/02/20 09:43:25;;;;;;;0.70;0.70;;;8.70;99.90;;;;;;6185050;23;20439;-72
2023/02/20 09:46:17;;;;;;;0.80;0.70;;;8.60;99.90;;;;;;6184880;23;20088;-72
2023/02/20 09:48:57;;;;;;;0.73;0.73;;;8.70;99.90;;;;;;6186904;23;20015;-72
2023/02/20 09:51:27;;;;;;;0.70;0.70;;;8.70;99.90;;;;;;6186823;23;20067;-72
2023/02/20 09:54:12;;;;;;;0.70;0.70;;;8.60;99.90;;;;;;6186862;23;20064;-72
2023/02/20 09:56:49;;;;;;;0.60;0.60;;;8.80;99.90;;;;;;6185151;23;20017;-72
2023/02/20 09:59:43;;;;;;;0.73;0.73;;;8.80;99.90;;;;;;6186931;23;20479;-72
2023/02/20 10:02:16;;;;;;;0.60;0.60;;;8.70;99.90;;;;;;6124874;23;20025;-72
2023/02/20 10:04:55;;;;;;;0.60;0.60;;;8.80;99.90;;;;;;6100476;23;20137;-72
2023/02/20 10:07:26;;;;;;;0.52;0.52;;;8.80;99.90;;;;;;6124978;23;20029;-72
2023/02/20 10:09:53;;;;;;;0.60;0.60;;;8.80;99.90;;;;;;6124743;23;20092;-72
2023/02/20 10:12:27;;;;;;;0.50;0.50;;;8.70;99.90;;;;;;6124843;23;20491;-71
2023/02/20 10:15:02;;;;;;;0.70;0.70;;;8.90;99.90;;;;;;6100115;23;20021;-72
2023/02/20 10:17:32;;;;;;;0.60;0.60;;;8.90;99.90;;;;;;6124663;23;20013;-72
2023/02/20 10:20:03;;;;;;;0.70;0.70;;;8.80;99.90;;;;;;6124711;23;20048;-72
2023/02/20 10:22:38;;;;;;;0.70;0.70;;;8.80;99.90;;;;;;6124472;23;20085;-72
2023/02/20 10:25:19;;;;;;;0.70;0.70;;;8.80;99.90;;;;;;6124505;23;20014;-72
2023/02/20 10:27:55;;;;;;;0.60;0.60;;;8.90;99.90;;;;;;6100220;23;20021;-72
2023/02/20 10:30:32;;;;;;;0.60;0.60;;;8.90;99.90;;;;;;6124316;23;20017;-72
2023/02/20 10:33:06;;;;;;;0.65;0.65;;;8.80;99.90;;;;;;6100779;23;20078;-72
2023/02/20 10:35:48;;;;;;;0.60;0.60;;;8.80;99.90;;;;;;6124355;23;20018;-72
2023/02/20 10:38:19;;;;;;;0.52;0.52;;;8.90;99.90;;;;;;6107835;23;20078;-73
2023/02/20 10:41:10;;;;;;;0.77;0.77;;;8.90;99.90;;;;;;6184594;23;20473;-71
2023/02/20 10:44:08;;;;;;;0.60;0.60;;;8.80;99.90;;;;;;6186178;23;20446;-71
2023/02/20 10:46:48;;;;;;;0.50;0.50;;;8.90;99.90;;;;;;6124351;23;20140;-71
2023/02/20 10:49:17;;;;;;;;;;;8.90;99.90;;;;;;6100264;23;20028;-71
2023/02/20 10:51:45;;;;;;;0.70;0.70;;;8.90;99.90;;;;;;6124454;23;19987;-71
2023/02/20 10:54:42;;;;;;;0.68;0.68;;;8.80;99.90;;;;;;6124255;23;20013;-71
2023/02/20 10:57:40;;;;;;;0.60;0.60;;;8.90;99.90;;;;;;6115881;23;20018;-71
2023/02/20 11:00:15;;;;;;;0.65;0.65;;;8.90;99.90;;;;;;6037680;23;20067;-71
2023/02/20 11:02:47;;;;;;;0.80;0.80;;;9.00;99.90;;;;;;6037516;23;20019;-71
2023/02/20 11:05:18;;;;;;;0.55;0.55;;;9.00;99.90;;;;;;6037697;23;20086;-71
2023/02/20 11:07:44;;;;;;;0.60;0.60;;;8.90;99.90;;;;;;6037451;23;20030;-71
2023/02/20 11:10:10;;;;;;;0.50;0.50;;;9.00;99.90;;;;;;6037512;23;20020;-71
2023/02/20 11:12:38;;;;;;;0.60;0.60;;;9.00;99.90;;;;;;6037467;23;20104;-71
2023/02/20 11:15:12;;;;;;;0.60;0.60;;;8.90;99.90;;;;;;6037330;23;20136;-71
2023/02/20 11:17:40;;;;;;;0.60;0.60;;;8.90;99.90;;;;;;6038262;23;20015;-71
2023/02/20 11:20:31;;;;;;;0.55;0.55;;;9.00;99.90;;;;;;6037304;23;20030;-71
2023/02/20 11:23:00;;;;;;;0.60;0.60;;;9.10;99.90;;;;;;6066626;23;20026;-72
2023/02/20 11:25:36;;;;;;;0.50;0.50;;;9.10;99.90;;;;;;6094882;23;20102;-71
2023/02/20 11:28:23;;;;;;;0.60;0.60;;;9.10;99.90;;;;;;6095121;23;20384;-71
2023/02/20 11:31:06;;;;;;;0.80;0.80;;;9.00;99.90;;;;;;6094616;23;20022;-71
2023/02/20 11:33:44;;;;;;;0.60;0.60;;;9.10;99.90;;;;;;6094762;23;20029;-72
2023/02/20 11:36:19;;;;;;;0.70;0.70;;;9.10;99.90;;;;;;6111697;23;20044;-72
2023/02/20 11:38:46;;;;;;;0.60;0.60;;;9.10;99.90;;;;;;6186046;23;20017;-72
2023/02/20 11:41:25;;;;;;;0.50;0.50;;;9.20;99.90;;;;;;6186063;23;20333;-71
2023/02/20 11:44:06;;;;;;;0.50;0.50;;;9.10;99.90;;;;;;6186003;23;20020;-71
2023/02/20 11:46:32;;;;;;;0.70;0.70;;;9.20;99.90;;;;;;6186110;23;20013;-71
2023/02/20 11:49:04;;;;;;;0.60;0.60;;;9.20;99.90;;;;;;6184528;23;20017;-71
2023/02/20 11:51:37;;;;;;;0.60;0.60;;;9.30;99.90;;;;;;6186064;23;20017;-71
2023/02/20 11:54:09;;;;;;;0.60;0.60;;;9.30;99.90;;;;;;6186086;23;20017;-71
2023/02/20 11:56:35;;;;;;;0.55;0.55;;;9.30;99.90;;;;;;6186054;23;20063;-71
2023/02/20 11:59:41;;;;;;;0.70;0.70;;;9.20;99.90;;;;;;6186602;23;20084;-72
2023/02/20 12:02:14;;;;;;;0.50;0.50;;;9.20;99.90;;;;;;6184179;23;20013;-72
2023/02/20 12:05:01;;;;;;;0.50;0.50;;;9.30;99.90;;;;;;6185938;23;20044;-73
2023/02/20 12:07:33;;;;;;;0.50;0.50;;;9.40;99.90;;;;;;6185924;23;20060;-73
2023/02/20 12:10:22;;;;;;;0.60;0.60;;;9.40;99.90;;;;;;6185358;23;20052;-75
2023/02/20 12:12:48;;;;;;;0.60;0.60;;;9.30;99.90;;;;;;6178220;23;20013;-73
2023/02/20 12:15:16;;;;;;;0.63;0.63;;;9.30;99.90;;;;;;6187698;23;20080;-73
2023/02/20 12:18:20;;;;;;;0.60;0.60;;;9.40;99.90;;;;;;6185928;23;20013;-73
2023/02/20 12:20:58;;;;;;;0.70;0.70;;;9.40;99.90;;;;;;6185127;23;20045;-73
2023/02/20 12:23:43;;;;;;;0.60;0.60;;;9.40;99.90;;;;;;6185836;23;20374;-72
2023/02/20 12:26:34;;;;;;;0.60;0.60;;;9.30;99.90;;;;;;6186196;23;20076;-72
2023/02/20 12:29:26;;;;;;;0.80;0.80;;;9.40;99.90;;;;;;6186037;23;20088;-67
2023/02/20 12:32:34;;;;;;;0.65;0.63;;;9.40;99.90;;;;;;6187605;23;20017;-67
2023/02/20 12:35:30;;;;;;;0.60;0.60;;;9.40;99.90;;;;;;6185607;23;20019;-67
2023/02/20 12:38:14;;;;;;;0.70;0.70;;;9.50;99.90;;;;;;6178754;23;20028;-67
2023/02/20 12:41:02;;;;;;;0.60;0.60;;;9.40;99.90;;;;;;6160835;23;20020;-67
2023/02/20 12:43:58;;;;;;;0.80;0.80;;;9.50;99.90;;;;;;6187694;23;20084;-68
2023/02/20 12:46:47;;;;;;;0.60;0.60;;;9.40;99.90;;;;;;6185636;23;20326;-67
2023/02/20 12:49:34;;;;;;;0.70;0.70;;;9.50;99.90;;;;;;6186096;23;20043;-67
2023/02/20 12:52:30;;;;;;;0.50;0.50;;;9.50;99.90;;;;;;6187728;23;20739;-67
2023/02/20 12:55:07;;;;;;;0.52;0.52;;;9.60;99.90;;;;;;6176067;23;20021;-67
2023/02/20 12:57:47;;;;;;;0.68;0.68;;;9.50;99.90;;;;;;6187567;23;20014;-67
2023/02/20 13:00:27;;;;;;;0.60;0.60;;;9.50;99.90;;;;;;6185668;23;20031;-67
2023/02/20 13:03:24;;;;;;;0.88;0.88;;;9.60;99.90;;;;;;6185661;23;20016;-68
2023/02/20 13:05:50;;;;;;;0.50;0.50;;;9.60;99.90;;;;;;6160556;23;20013;-68
2023/02/20 13:08:30;;;;;;;0.80;0.80;;;9.60;99.90;;;;;;6185427;23;20064;-68
2023/02/20 13:11:02;;;;;;;0.60;0.60;;;9.60;99.90;;;;;;6185427;23;20051;-68
2023/02/20 13:13:40;;;;;;;0.70;0.70;;;9.60;99.90;;;;;;6187340;23;20016;-68
2023/02/20 13:16:28;;;;;;;0.60;0.60;;;9.60;99.90;;;;;;6186920;23;20354;-68
2023/02/20 13:19:10;;;;;;;0.47;0.47;;;9.60;99.90;;;;;;6177276;23;20013;-68
2023/02/20 13:21:35;;;;;;;0.60;0.60;;;9.70;99.90;;;;;;6187202;23;20013;-68
2023/02/20 13:24:19;;;;;;;0.60;0.60;;;9.60;99.90;;;;;;6186863;23;20020;-68
2023/02/20 13:26:53;;;;;;;0.60;0.60;;;9.60;99.90;;;;;;6185217;23;20521;-68
2023/02/20 13:29:26;;;;;;;0.50;0.50;;;9.70;99.90;;;;;;6186704;23;20017;-68